sensor_id;sensor_type;location;lat;lon;timestamp;P1;durP1;ratioP1;P2;durP2;ratioP2
50591;SDS011;36548;50.506;30.834;2023-03-29T00:00:39;2.08;;;1.87;;
50591;SDS011;36548;50.506;30.834;2023-03-29T00:01:48;2.03;;;1.78;;
50591;SDS011;36548;50.506;30.834;2023-03-29T00:02:57;1.90;;;1.80;;
50591;SDS011;36548;50.506;30.834;2023-03-29T00:04:14;2.83;;;2.63;;
50591;SDS011;36548;50.506;30.834;2023-03-29T00:05:25;3.15;;;2.85;;
50591;SDS011;36548;50.506;30.834;2023-03-29T00:06:34;2.73;;;2.53;;
50591;SDS011;36548;50.506;30.834;2023-03-29T00:07:50;2.97;;;2.53;;
50591;SDS011;36548;50.506;30.834;2023-03-29T00:09:00;2.45;;;2.25;;
50591;SDS011;36548;50.506;30.834;2023-03-29T00:10:21;2.73;;;2.40;;
50591;SDS011;36548;50.506;30.834;2023-03-29T00:11:33;2.18;;;1.98;;
50591;SDS011;36548;50.506;30.834;2023-03-29T00:12:43;2.62;;;2.42;;
50591;SDS011;36548;50.506;30.834;2023-03-29T00:13:58;1.85;;;1.75;;
50591;SDS011;36548;50.506;30.834;2023-03-29T00:15:08;1.87;;;1.70;;
50591;SDS011;36548;50.506;30.834;2023-03-29T00:16:24;2.10;;;1.97;;
50591;SDS011;36548;50.506;30.834;2023-03-29T00:17:35;2.18;;;1.95;;
50591;SDS011;36548;50.506;30.834;2023-03-29T00:18:44;2.55;;;2.35;;
50591;SDS011;36548;50.506;30.834;2023-03-29T00:19:53;3.13;;;2.82;;
50591;SDS011;36548;50.506;30.834;2023-03-29T00:21:05;2.80;;;2.60;;
50591;SDS011;36548;50.506;30.834;2023-03-29T00:22:21;3.35;;;3.00;;
50591;SDS011;36548;50.506;30.834;2023-03-29T00:23:30;2.42;;;2.17;;
50591;SDS011;36548;50.506;30.834;2023-03-29T00:24:39;2.70;;;2.47;;
50591;SDS011;36548;50.506;30.834;2023-03-29T00:25:49;2.33;;;2.13;;
50591;SDS011;36548;50.506;30.834;2023-03-29T00:27:05;3.40;;;2.10;;
50591;SDS011;36548;50.506;30.834;2023-03-29T00:28:14;2.58;;;2.38;;
50591;SDS011;36548;50.506;30.834;2023-03-29T00:29:30;2.35;;;2.15;;
50591;SDS011;36548;50.506;30.834;2023-03-29T00:30:41;2.42;;;2.22;;
50591;SDS011;36548;50.506;30.834;2023-03-29T00:31:56;2.63;;;2.05;;
50591;SDS011;36548;50.506;30.834;2023-03-29T00:33:07;2.80;;;2.20;;
50591;SDS011;36548;50.506;30.834;2023-03-29T00:34:17;2.60;;;2.40;;
50591;SDS011;36548;50.506;30.834;2023-03-29T00:35:32;2.75;;;2.52;;
50591;SDS011;36548;50.506;30.834;2023-03-29T00:36:43;2.47;;;2.27;;
50591;SDS011;36548;50.506;30.834;2023-03-29T00:37:58;2.35;;;2.00;;
50591;SDS011;36548;50.506;30.834;2023-03-29T00:39:07;2.57;;;2.22;;
50591;SDS011;36548;50.506;30.834;2023-03-29T00:40:17;2.55;;;2.35;;
50591;SDS011;36548;50.506;30.834;2023-03-29T00:41:34;2.70;;;2.18;;
50591;SDS011;36548;50.506;30.834;2023-03-29T00:42:43;4.75;;;2.23;;
50591;SDS011;36548;50.506;30.834;2023-03-29T00:44:01;2.92;;;1.98;;
50591;SDS011;36548;50.506;30.834;2023-03-29T00:46:35;3.47;;;2.58;;
50591;SDS011;36548;50.506;30.834;2023-03-29T00:49:14;3.17;;;2.53;;
50591;SDS011;36548;50.506;30.834;2023-03-29T00:50:24;3.42;;;2.90;;
50591;SDS011;36548;50.506;30.834;2023-03-29T00:51:39;4.18;;;2.70;;
50591;SDS011;36548;50.506;30.834;2023-03-29T00:53:02;2.95;;;2.33;;
50591;SDS011;36548;50.506;30.834;2023-03-29T00:54:17;2.70;;;2.50;;
50591;SDS011;36548;50.506;30.834;2023-03-29T00:55:35;2.70;;;2.50;;
50591;SDS011;36548;50.506;30.834;2023-03-29T00:56:46;2.03;;;1.82;;
50591;SDS011;36548;50.506;30.834;2023-03-29T00:57:59;2.94;;;2.36;;
50591;SDS011;36548;50.506;30.834;2023-03-29T00:59:12;2.47;;;2.17;;
50591;SDS011;36548;50.506;30.834;2023-03-29T01:00:40;3.42;;;2.90;;
50591;SDS011;36548;50.506;30.834;2023-03-29T01:02:03;3.20;;;2.90;;
50591;SDS011;36548;50.506;30.834;2023-03-29T01:03:21;2.80;;;2.48;;
50591;SDS011;36548;50.506;30.834;2023-03-29T01:05:56;2.60;;;2.33;;
50591;SDS011;36548;50.506;30.834;2023-03-29T01:07:16;2.55;;;2.15;;
50591;SDS011;36548;50.506;30.834;2023-03-29T01:08:33;2.22;;;1.82;;
50591;SDS011;36548;50.506;30.834;2023-03-29T01:09:54;2.78;;;2.42;;
50591;SDS011;36548;50.506;30.834;2023-03-29T01:11:15;2.85;;;2.28;;
50591;SDS011;36548;50.506;30.834;2023-03-29T01:12:33;3.08;;;2.78;;
50591;SDS011;36548;50.506;30.834;2023-03-29T01:13:57;4.73;;;3.37;;
50591;SDS011;36548;50.506;30.834;2023-03-29T01:15:09;4.12;;;2.92;;
50591;SDS011;36548;50.506;30.834;2023-03-29T01:16:25;3.42;;;2.35;;
50591;SDS011;36548;50.506;30.834;2023-03-29T01:17:42;3.63;;;2.67;;
50591;SDS011;36548;50.506;30.834;2023-03-29T01:18:55;4.27;;;2.63;;
50591;SDS011;36548;50.506;30.834;2023-03-29T01:20:36;7.15;;;3.75;;
50591;SDS011;36548;50.506;30.834;2023-03-29T01:21:51;4.28;;;2.50;;
50591;SDS011;36548;50.506;30.834;2023-03-29T01:23:19;5.12;;;2.70;;
50591;SDS011;36548;50.506;30.834;2023-03-29T01:26:20;6.20;;;2.45;;
50591;SDS011;36548;50.506;30.834;2023-03-29T01:27:40;5.83;;;3.25;;
50591;SDS011;36548;50.506;30.834;2023-03-29T01:30:13;4.53;;;2.90;;
50591;SDS011;36548;50.506;30.834;2023-03-29T01:31:33;3.22;;;2.28;;
50591;SDS011;36548;50.506;30.834;2023-03-29T01:32:46;4.53;;;2.62;;
50591;SDS011;36548;50.506;30.834;2023-03-29T01:34:08;6.55;;;3.92;;
50591;SDS011;36548;50.506;30.834;2023-03-29T01:35:24;6.23;;;3.48;;
50591;SDS011;36548;50.506;30.834;2023-03-29T01:36:49;5.45;;;3.05;;
50591;SDS011;36548;50.506;30.834;2023-03-29T01:38:16;5.92;;;3.27;;
50591;SDS011;36548;50.506;30.834;2023-03-29T01:39:37;6.30;;;3.73;;
50591;SDS011;36548;50.506;30.834;2023-03-29T01:40:45;4.88;;;3.07;;
50591;SDS011;36548;50.506;30.834;2023-03-29T01:43:25;4.13;;;2.58;;
50591;SDS011;36548;50.506;30.834;2023-03-29T01:45:09;2.95;;;2.30;;
50591;SDS011;36548;50.506;30.834;2023-03-29T01:46:31;5.10;;;3.27;;
50591;SDS011;36548;50.506;30.834;2023-03-29T01:50:49;1.37;;;1.27;;
50591;SDS011;36548;50.506;30.834;2023-03-29T01:53:37;1.40;;;1.30;;
50591;SDS011;36548;50.506;30.834;2023-03-29T01:55:04;2.07;;;1.53;;
50591;SDS011;36548;50.506;30.834;2023-03-29T01:56:17;2.33;;;1.32;;
50591;SDS011;36548;50.506;30.834;2023-03-29T01:57:34;3.05;;;1.60;;
50591;SDS011;36548;50.506;30.834;2023-03-29T01:58:52;1.62;;;1.45;;
50591;SDS011;36548;50.506;30.834;2023-03-29T02:00:06;2.17;;;1.62;;
50591;SDS011;36548;50.506;30.834;2023-03-29T02:01:26;2.03;;;1.83;;
50591;SDS011;36548;50.506;30.834;2023-03-29T02:02:40;1.50;;;1.40;;
50591;SDS011;36548;50.506;30.834;2023-03-29T02:04:00;1.40;;;1.30;;
50591;SDS011;36548;50.506;30.834;2023-03-29T02:05:13;1.60;;;1.12;;
50591;SDS011;36548;50.506;30.834;2023-03-29T02:06:25;1.57;;;1.47;;
50591;SDS011;36548;50.506;30.834;2023-03-29T02:07:42;2.48;;;1.27;;
50591;SDS011;36548;50.506;30.834;2023-03-29T02:08:55;1.40;;;1.30;;
50591;SDS011;36548;50.506;30.834;2023-03-29T02:11:22;1.75;;;1.63;;
50591;SDS011;36548;50.506;30.834;2023-03-29T02:12:34;1.83;;;1.72;;
50591;SDS011;36548;50.506;30.834;2023-03-29T02:14:09;2.70;;;1.15;;
50591;SDS011;36548;50.506;30.834;2023-03-29T02:15:19;1.25;;;1.10;;
50591;SDS011;36548;50.506;30.834;2023-03-29T02:16:35;2.10;;;1.58;;
50591;SDS011;36548;50.506;30.834;2023-03-29T02:17:46;2.08;;;1.57;;
50591;SDS011;36548;50.506;30.834;2023-03-29T02:19:05;1.73;;;1.40;;
50591;SDS011;36548;50.506;30.834;2023-03-29T02:20:21;1.80;;;1.60;;
50591;SDS011;36548;50.506;30.834;2023-03-29T02:23:13;1.85;;;1.30;;
50591;SDS011;36548;50.506;30.834;2023-03-29T02:24:26;2.45;;;1.33;;
50591;SDS011;36548;50.506;30.834;2023-03-29T02:25:47;1.78;;;1.40;;
50591;SDS011;36548;50.506;30.834;2023-03-29T02:27:02;1.27;;;1.15;;
50591;SDS011;36548;50.506;30.834;2023-03-29T02:28:19;1.43;;;1.33;;
50591;SDS011;36548;50.506;30.834;2023-03-29T02:29:32;1.35;;;1.25;;
50591;SDS011;36548;50.506;30.834;2023-03-29T02:32:15;1.60;;;1.38;;
50591;SDS011;36548;50.506;30.834;2023-03-29T02:33:38;1.40;;;1.20;;
50591;SDS011;36548;50.506;30.834;2023-03-29T02:35:16;2.62;;;1.42;;
50591;SDS011;36548;50.506;30.834;2023-03-29T02:36:35;1.85;;;1.28;;
50591;SDS011;36548;50.506;30.834;2023-03-29T02:37:54;1.58;;;1.20;;
50591;SDS011;36548;50.506;30.834;2023-03-29T02:39:09;1.70;;;1.58;;
50591;SDS011;36548;50.506;30.834;2023-03-29T02:40:22;1.35;;;1.02;;
50591;SDS011;36548;50.506;30.834;2023-03-29T02:41:59;1.95;;;1.42;;
50591;SDS011;36548;50.506;30.834;2023-03-29T02:43:11;2.28;;;1.28;;
50591;SDS011;36548;50.506;30.834;2023-03-29T02:44:31;1.63;;;1.53;;
50591;SDS011;36548;50.506;30.834;2023-03-29T02:45:43;1.35;;;1.22;;
50591;SDS011;36548;50.506;30.834;2023-03-29T02:47:06;1.50;;;1.40;;
50591;SDS011;36548;50.506;30.834;2023-03-29T02:48:16;1.88;;;1.77;;
50591;SDS011;36548;50.506;30.834;2023-03-29T02:49:34;2.07;;;1.50;;
50591;SDS011;36548;50.506;30.834;2023-03-29T02:50:44;2.58;;;1.47;;
50591;SDS011;36548;50.506;30.834;2023-03-29T02:52:07;4.02;;;1.60;;
50591;SDS011;36548;50.506;30.834;2023-03-29T02:53:32;1.95;;;1.40;;
50591;SDS011;36548;50.506;30.834;2023-03-29T02:54:51;1.58;;;1.40;;
50591;SDS011;36548;50.506;30.834;2023-03-29T02:56:03;1.48;;;1.38;;
50591;SDS011;36548;50.506;30.834;2023-03-29T02:57:39;1.75;;;1.65;;
50591;SDS011;36548;50.506;30.834;2023-03-29T02:58:51;2.55;;;1.30;;
50591;SDS011;36548;50.506;30.834;2023-03-29T03:00:07;2.17;;;1.58;;
50591;SDS011;36548;50.506;30.834;2023-03-29T03:01:17;1.40;;;1.30;;
50591;SDS011;36548;50.506;30.834;2023-03-29T03:02:34;1.68;;;1.58;;
50591;SDS011;36548;50.506;30.834;2023-03-29T03:03:47;1.45;;;1.35;;
50591;SDS011;36548;50.506;30.834;2023-03-29T03:04:58;1.50;;;1.35;;
50591;SDS011;36548;50.506;30.834;2023-03-29T03:06:13;1.45;;;1.23;;
50591;SDS011;36548;50.506;30.834;2023-03-29T03:07:22;1.27;;;1.07;;
50591;SDS011;36548;50.506;30.834;2023-03-29T03:08:33;2.00;;;1.40;;
50591;SDS011;36548;50.506;30.834;2023-03-29T03:09:49;1.75;;;1.12;;
50591;SDS011;36548;50.506;30.834;2023-03-29T03:11:00;1.35;;;1.25;;
50591;SDS011;36548;50.506;30.834;2023-03-29T03:12:10;1.46;;;1.36;;
50591;SDS011;36548;50.506;30.834;2023-03-29T03:13:20;2.37;;;1.50;;
50591;SDS011;36548;50.506;30.834;2023-03-29T03:14:36;1.70;;;1.57;;
50591;SDS011;36548;50.506;30.834;2023-03-29T03:15:45;1.78;;;1.63;;
50591;SDS011;36548;50.506;30.834;2023-03-29T03:16:56;1.65;;;1.50;;
50591;SDS011;36548;50.506;30.834;2023-03-29T03:18:06;1.70;;;1.60;;
50591;SDS011;36548;50.506;30.834;2023-03-29T03:19:23;2.27;;;1.72;;
50591;SDS011;36548;50.506;30.834;2023-03-29T03:20:34;2.30;;;1.57;;
50591;SDS011;36548;50.506;30.834;2023-03-29T03:21:50;1.45;;;1.35;;
50591;SDS011;36548;50.506;30.834;2023-03-29T03:22:59;2.72;;;1.55;;
50591;SDS011;36548;50.506;30.834;2023-03-29T03:24:17;1.33;;;1.12;;
50591;SDS011;36548;50.506;30.834;2023-03-29T03:25:26;1.33;;;1.25;;
50591;SDS011;36548;50.506;30.834;2023-03-29T03:26:42;2.15;;;1.32;;
50591;SDS011;36548;50.506;30.834;2023-03-29T03:27:53;1.98;;;1.43;;
50591;SDS011;36548;50.506;30.834;2023-03-29T03:30:31;1.73;;;1.45;;
50591;SDS011;36548;50.506;30.834;2023-03-29T03:31:48;1.67;;;1.33;;
50591;SDS011;36548;50.506;30.834;2023-03-29T03:34:34;1.83;;;1.72;;
50591;SDS011;36548;50.506;30.834;2023-03-29T03:35:44;1.78;;;1.60;;
50591;SDS011;36548;50.506;30.834;2023-03-29T03:37:03;3.20;;;1.55;;
50591;SDS011;36548;50.506;30.834;2023-03-29T03:38:14;1.80;;;1.20;;
50591;SDS011;36548;50.506;30.834;2023-03-29T03:39:30;1.47;;;1.33;;
50591;SDS011;36548;50.506;30.834;2023-03-29T03:40:41;2.35;;;1.40;;
50591;SDS011;36548;50.506;30.834;2023-03-29T03:41:56;1.28;;;1.18;;
50591;SDS011;36548;50.506;30.834;2023-03-29T03:44:23;1.95;;;1.70;;
50591;SDS011;36548;50.506;30.834;2023-03-29T03:45:35;1.58;;;1.48;;
50591;SDS011;36548;50.506;30.834;2023-03-29T03:46:54;1.83;;;1.60;;
50591;SDS011;36548;50.506;30.834;2023-03-29T03:48:04;2.70;;;1.65;;
50591;SDS011;36548;50.506;30.834;2023-03-29T03:49:21;2.40;;;1.75;;
50591;SDS011;36548;50.506;30.834;2023-03-29T03:50:30;1.47;;;1.37;;
50591;SDS011;36548;50.506;30.834;2023-03-29T03:51:40;2.20;;;1.40;;
50591;SDS011;36548;50.506;30.834;2023-03-29T03:52:52;3.28;;;1.55;;
50591;SDS011;36548;50.506;30.834;2023-03-29T03:54:02;2.37;;;1.60;;
50591;SDS011;36548;50.506;30.834;2023-03-29T03:55:14;2.30;;;1.83;;
50591;SDS011;36548;50.506;30.834;2023-03-29T03:56:30;2.10;;;1.90;;
50591;SDS011;36548;50.506;30.834;2023-03-29T03:57:44;2.05;;;1.55;;
50591;SDS011;36548;50.506;30.834;2023-03-29T03:58:57;2.12;;;1.82;;
50591;SDS011;36548;50.506;30.834;2023-03-29T04:00:13;2.70;;;1.40;;
50591;SDS011;36548;50.506;30.834;2023-03-29T04:01:46;3.07;;;1.88;;
50591;SDS011;36548;50.506;30.834;2023-03-29T04:03:02;3.30;;;1.70;;
50591;SDS011;36548;50.506;30.834;2023-03-29T04:04:14;1.55;;;1.40;;
50591;SDS011;36548;50.506;30.834;2023-03-29T04:05:26;2.42;;;2.12;;
50591;SDS011;36548;50.506;30.834;2023-03-29T04:07:02;1.50;;;1.40;;
50591;SDS011;36548;50.506;30.834;2023-03-29T04:08:13;1.45;;;1.28;;
50591;SDS011;36548;50.506;30.834;2023-03-29T04:09:29;1.53;;;1.43;;
50591;SDS011;36548;50.506;30.834;2023-03-29T04:11:28;2.10;;;1.47;;
50591;SDS011;36548;50.506;30.834;2023-03-29T04:12:39;2.77;;;1.63;;
50591;SDS011;36548;50.506;30.834;2023-03-29T04:13:49;1.85;;;1.68;;
50591;SDS011;36548;50.506;30.834;2023-03-29T04:15:40;2.35;;;1.70;;
50591;SDS011;36548;50.506;30.834;2023-03-29T04:16:56;2.12;;;1.98;;
50591;SDS011;36548;50.506;30.834;2023-03-29T04:18:56;1.45;;;1.35;;
50591;SDS011;36548;50.506;30.834;2023-03-29T04:20:13;2.08;;;1.73;;
50591;SDS011;36548;50.506;30.834;2023-03-29T04:21:22;2.10;;;1.90;;
50591;SDS011;36548;50.506;30.834;2023-03-29T04:22:57;1.60;;;1.48;;
50591;SDS011;36548;50.506;30.834;2023-03-29T04:24:07;1.70;;;1.60;;
50591;SDS011;36548;50.506;30.834;2023-03-29T04:25:18;1.90;;;1.80;;
50591;SDS011;36548;50.506;30.834;2023-03-29T04:26:32;2.60;;;2.20;;
50591;SDS011;36548;50.506;30.834;2023-03-29T04:27:47;1.83;;;1.70;;
50591;SDS011;36548;50.506;30.834;2023-03-29T04:29:40;2.37;;;2.17;;
50591;SDS011;36548;50.506;30.834;2023-03-29T04:30:57;2.08;;;1.72;;
50591;SDS011;36548;50.506;30.834;2023-03-29T04:32:54;1.68;;;1.58;;
50591;SDS011;36548;50.506;30.834;2023-03-29T04:35:20;2.08;;;1.80;;
50591;SDS011;36548;50.506;30.834;2023-03-29T04:37:40;2.22;;;1.95;;
50591;SDS011;36548;50.506;30.834;2023-03-29T04:38:57;3.57;;;2.38;;
50591;SDS011;36548;50.506;30.834;2023-03-29T04:40:09;3.45;;;1.83;;
50591;SDS011;36548;50.506;30.834;2023-03-29T04:41:28;1.72;;;1.35;;
50591;SDS011;36548;50.506;30.834;2023-03-29T04:42:40;2.23;;;1.70;;
50591;SDS011;36548;50.506;30.834;2023-03-29T04:43:53;3.75;;;3.45;;
50591;SDS011;36548;50.506;30.834;2023-03-29T04:45:08;1.93;;;1.80;;
50591;SDS011;36548;50.506;30.834;2023-03-29T04:46:20;1.82;;;1.72;;
50591;SDS011;36548;50.506;30.834;2023-03-29T04:47:41;1.68;;;1.58;;
50591;SDS011;36548;50.506;30.834;2023-03-29T04:48:52;1.65;;;1.43;;
50591;SDS011;36548;50.506;30.834;2023-03-29T04:50:04;2.30;;;1.75;;
50591;SDS011;36548;50.506;30.834;2023-03-29T04:51:19;2.12;;;1.98;;
50591;SDS011;36548;50.506;30.834;2023-03-29T04:52:31;2.38;;;1.85;;
50591;SDS011;36548;50.506;30.834;2023-03-29T04:53:55;2.45;;;2.25;;
50591;SDS011;36548;50.506;30.834;2023-03-29T04:55:09;2.58;;;2.37;;
50591;SDS011;36548;50.506;30.834;2023-03-29T04:56:25;2.62;;;2.16;;
50591;SDS011;36548;50.506;30.834;2023-03-29T05:01:51;1.85;;;1.68;;
50591;SDS011;36548;50.506;30.834;2023-03-29T05:03:09;2.30;;;2.10;;
50591;SDS011;36548;50.506;30.834;2023-03-29T05:04:21;1.87;;;1.77;;
50591;SDS011;36548;50.506;30.834;2023-03-29T05:05:32;1.97;;;1.75;;
50591;SDS011;36548;50.506;30.834;2023-03-29T05:06:47;1.85;;;1.68;;
50591;SDS011;36548;50.506;30.834;2023-03-29T05:07:57;2.47;;;1.73;;
50591;SDS011;36548;50.506;30.834;2023-03-29T05:09:12;2.35;;;1.87;;
50591;SDS011;36548;50.506;30.834;2023-03-29T05:10:25;1.88;;;1.65;;
50591;SDS011;36548;50.506;30.834;2023-03-29T05:11:41;2.12;;;1.85;;
50591;SDS011;36548;50.506;30.834;2023-03-29T05:12:51;2.22;;;1.70;;
50591;SDS011;36548;50.506;30.834;2023-03-29T05:14:08;2.05;;;1.77;;
50591;SDS011;36548;50.506;30.834;2023-03-29T05:15:17;1.87;;;1.75;;
50591;SDS011;36548;50.506;30.834;2023-03-29T05:16:29;3.33;;;1.97;;
50591;SDS011;36548;50.506;30.834;2023-03-29T05:17:44;1.80;;;1.70;;
50591;SDS011;36548;50.506;30.834;2023-03-29T05:18:57;2.13;;;1.92;;
50591;SDS011;36548;50.506;30.834;2023-03-29T05:20:14;3.45;;;2.27;;
50591;SDS011;36548;50.506;30.834;2023-03-29T05:21:27;2.07;;;1.90;;
50591;SDS011;36548;50.506;30.834;2023-03-29T05:22:42;2.13;;;1.80;;
50591;SDS011;36548;50.506;30.834;2023-03-29T05:23:52;2.45;;;2.15;;
50591;SDS011;36548;50.506;30.834;2023-03-29T05:25:08;2.38;;;2.18;;
50591;SDS011;36548;50.506;30.834;2023-03-29T05:26:22;2.25;;;1.70;;
50591;SDS011;36548;50.506;30.834;2023-03-29T05:27:40;2.57;;;1.90;;
50591;SDS011;36548;50.506;30.834;2023-03-29T05:28:51;3.90;;;1.70;;
50591;SDS011;36548;50.506;30.834;2023-03-29T05:30:06;2.37;;;1.78;;
50591;SDS011;36548;50.506;30.834;2023-03-29T05:31:40;1.63;;;1.53;;
50591;SDS011;36548;50.506;30.834;2023-03-29T05:32:57;2.85;;;1.77;;
50591;SDS011;36548;50.506;30.834;2023-03-29T05:34:12;2.17;;;1.93;;
50591;SDS011;36548;50.506;30.834;2023-03-29T05:35:27;2.50;;;2.20;;
50591;SDS011;36548;50.506;30.834;2023-03-29T05:36:38;3.20;;;1.98;;
50591;SDS011;36548;50.506;30.834;2023-03-29T05:37:54;3.22;;;1.52;;
50591;SDS011;36548;50.506;30.834;2023-03-29T05:39:04;2.25;;;2.10;;
50591;SDS011;36548;50.506;30.834;2023-03-29T05:40:23;2.52;;;2.32;;
50591;SDS011;36548;50.506;30.834;2023-03-29T05:41:35;3.65;;;2.42;;
50591;SDS011;36548;50.506;30.834;2023-03-29T05:42:50;3.10;;;2.78;;
50591;SDS011;36548;50.506;30.834;2023-03-29T05:44:00;2.60;;;2.40;;
50591;SDS011;36548;50.506;30.834;2023-03-29T05:45:16;2.28;;;1.95;;
50591;SDS011;36548;50.506;30.834;2023-03-29T05:46:25;3.55;;;2.40;;
50591;SDS011;36548;50.506;30.834;2023-03-29T05:47:36;3.50;;;2.90;;
50591;SDS011;36548;50.506;30.834;2023-03-29T05:48:46;2.40;;;2.20;;
50591;SDS011;36548;50.506;30.834;2023-03-29T05:49:56;3.20;;;2.17;;
50591;SDS011;36548;50.506;30.834;2023-03-29T05:51:12;3.32;;;2.43;;
50591;SDS011;36548;50.506;30.834;2023-03-29T05:52:22;3.70;;;2.66;;
50591;SDS011;36548;50.506;30.834;2023-03-29T05:53:32;3.93;;;2.80;;
50591;SDS011;36548;50.506;30.834;2023-03-29T05:54:47;2.98;;;2.52;;
50591;SDS011;36548;50.506;30.834;2023-03-29T05:55:56;3.85;;;2.50;;
50591;SDS011;36548;50.506;30.834;2023-03-29T05:57:12;2.98;;;2.08;;
50591;SDS011;36548;50.506;30.834;2023-03-29T05:58:21;2.33;;;2.10;;
50591;SDS011;36548;50.506;30.834;2023-03-29T05:59:39;2.55;;;2.02;;
50591;SDS011;36548;50.506;30.834;2023-03-29T06:00:49;2.55;;;2.05;;
50591;SDS011;36548;50.506;30.834;2023-03-29T06:02:04;2.30;;;2.12;;
50591;SDS011;36548;50.506;30.834;2023-03-29T06:03:16;4.55;;;2.45;;
50591;SDS011;36548;50.506;30.834;2023-03-29T06:04:33;3.28;;;2.48;;
50591;SDS011;36548;50.506;30.834;2023-03-29T06:06:04;3.42;;;2.62;;
50591;SDS011;36548;50.506;30.834;2023-03-29T06:07:17;3.50;;;2.40;;
50591;SDS011;36548;50.506;30.834;2023-03-29T06:09:44;1.87;;;1.72;;
50591;SDS011;36548;50.506;30.834;2023-03-29T06:10:59;3.23;;;2.30;;
50591;SDS011;36548;50.506;30.834;2023-03-29T06:12:17;2.87;;;2.27;;
50591;SDS011;36548;50.506;30.834;2023-03-29T06:13:31;2.57;;;2.18;;
50591;SDS011;36548;50.506;30.834;2023-03-29T06:14:46;4.08;;;2.37;;
50591;SDS011;36548;50.506;30.834;2023-03-29T06:16:02;2.87;;;2.43;;
50591;SDS011;36548;50.506;30.834;2023-03-29T06:17:39;3.55;;;2.25;;
50591;SDS011;36548;50.506;30.834;2023-03-29T06:18:48;3.35;;;2.83;;
50591;SDS011;36548;50.506;30.834;2023-03-29T06:19:59;3.17;;;2.85;;
50591;SDS011;36548;50.506;30.834;2023-03-29T06:21:10;6.50;;;3.95;;
50591;SDS011;36548;50.506;30.834;2023-03-29T06:22:27;4.90;;;4.10;;
50591;SDS011;36548;50.506;30.834;2023-03-29T06:23:35;4.63;;;4.10;;
50591;SDS011;36548;50.506;30.834;2023-03-29T06:24:44;4.02;;;3.52;;
50591;SDS011;36548;50.506;30.834;2023-03-29T06:25:56;3.48;;;2.60;;
50591;SDS011;36548;50.506;30.834;2023-03-29T06:27:07;4.77;;;2.88;;
50591;SDS011;36548;50.506;30.834;2023-03-29T06:28:18;2.35;;;2.03;;
50591;SDS011;36548;50.506;30.834;2023-03-29T06:29:30;3.15;;;2.75;;
50591;SDS011;36548;50.506;30.834;2023-03-29T06:30:39;4.80;;;3.17;;
50591;SDS011;36548;50.506;30.834;2023-03-29T06:31:52;3.83;;;3.10;;
50591;SDS011;36548;50.506;30.834;2023-03-29T06:34:31;2.97;;;2.65;;
50591;SDS011;36548;50.506;30.834;2023-03-29T06:35:46;3.13;;;2.80;;
50591;SDS011;36548;50.506;30.834;2023-03-29T06:36:59;3.55;;;2.90;;
50591;SDS011;36548;50.506;30.834;2023-03-29T06:38:09;3.22;;;2.87;;
50591;SDS011;36548;50.506;30.834;2023-03-29T06:40:05;3.27;;;2.75;;
50591;SDS011;36548;50.506;30.834;2023-03-29T06:41:23;3.15;;;2.52;;
50591;SDS011;36548;50.506;30.834;2023-03-29T06:42:37;2.77;;;2.57;;
50591;SDS011;36548;50.506;30.834;2023-03-29T06:43:54;2.93;;;2.62;;
50591;SDS011;36548;50.506;30.834;2023-03-29T06:45:05;3.15;;;2.70;;
50591;SDS011;36548;50.506;30.834;2023-03-29T06:46:14;2.95;;;2.68;;
50591;SDS011;36548;50.506;30.834;2023-03-29T06:47:31;4.73;;;3.68;;
50591;SDS011;36548;50.506;30.834;2023-03-29T06:48:40;4.63;;;3.67;;
50591;SDS011;36548;50.506;30.834;2023-03-29T06:49:48;5.22;;;4.72;;
50591;SDS011;36548;50.506;30.834;2023-03-29T06:51:04;6.32;;;5.38;;
50591;SDS011;36548;50.506;30.834;2023-03-29T06:52:14;5.40;;;4.95;;
50591;SDS011;36548;50.506;30.834;2023-03-29T06:53:26;6.67;;;5.73;;
50591;SDS011;36548;50.506;30.834;2023-03-29T06:54:37;7.03;;;5.47;;
50591;SDS011;36548;50.506;30.834;2023-03-29T06:55:46;4.58;;;4.00;;
50591;SDS011;36548;50.506;30.834;2023-03-29T06:57:03;4.33;;;3.02;;
50591;SDS011;36548;50.506;30.834;2023-03-29T06:58:14;3.35;;;2.80;;
50591;SDS011;36548;50.506;30.834;2023-03-29T06:59:24;4.45;;;2.55;;
50591;SDS011;36548;50.506;30.834;2023-03-29T07:00:40;2.50;;;2.30;;
50591;SDS011;36548;50.506;30.834;2023-03-29T07:01:54;4.50;;;3.35;;
50591;SDS011;36548;50.506;30.834;2023-03-29T07:42:03;2.97;;;2.68;;
50591;SDS011;36548;50.506;30.834;2023-03-29T07:43:12;5.18;;;2.55;;
50591;SDS011;36548;50.506;30.834;2023-03-29T07:44:22;3.50;;;2.47;;
50591;SDS011;36548;50.506;30.834;2023-03-29T07:45:31;4.55;;;3.13;;
50591;SDS011;36548;50.506;30.834;2023-03-29T07:46:48;4.05;;;3.32;;
50591;SDS011;36548;50.506;30.834;2023-03-29T07:48:04;4.33;;;3.08;;
50591;SDS011;36548;50.506;30.834;2023-03-29T07:49:28;3.62;;;3.23;;
50591;SDS011;36548;50.506;30.834;2023-03-29T07:50:44;4.22;;;3.37;;
50591;SDS011;36548;50.506;30.834;2023-03-29T07:51:54;3.33;;;3.03;;
50591;SDS011;36548;50.506;30.834;2023-03-29T07:53:10;3.45;;;3.15;;
50591;SDS011;36548;50.506;30.834;2023-03-29T07:54:19;3.85;;;3.18;;
50591;SDS011;36548;50.506;30.834;2023-03-29T07:55:35;3.12;;;2.82;;
50591;SDS011;36548;50.506;30.834;2023-03-29T07:57:29;14.07;;;11.68;;
50591;SDS011;36548;50.506;30.834;2023-03-29T07:58:40;21.57;;;19.15;;
50591;SDS011;36548;50.506;30.834;2023-03-29T07:59:55;16.30;;;11.15;;
50591;SDS011;36548;50.506;30.834;2023-03-29T08:01:06;5.63;;;4.17;;
50591;SDS011;36548;50.506;30.834;2023-03-29T08:03:05;4.20;;;3.07;;
50591;SDS011;36548;50.506;30.834;2023-03-29T08:04:21;3.13;;;2.83;;
50591;SDS011;36548;50.506;30.834;2023-03-29T08:05:49;2.57;;;2.37;;
50591;SDS011;36548;50.506;30.834;2023-03-29T08:07:00;2.88;;;2.57;;
50591;SDS011;36548;50.506;30.834;2023-03-29T08:08:16;2.87;;;2.60;;
50591;SDS011;36548;50.506;30.834;2023-03-29T08:09:33;3.63;;;2.40;;
50591;SDS011;36548;50.506;30.834;2023-03-29T08:10:48;3.30;;;2.55;;
50591;SDS011;36548;50.506;30.834;2023-03-29T08:12:17;2.97;;;2.70;;
50591;SDS011;36548;50.506;30.834;2023-03-29T08:13:26;3.03;;;2.37;;
50591;SDS011;36548;50.506;30.834;2023-03-29T08:14:56;4.05;;;2.70;;
50591;SDS011;36548;50.506;30.834;2023-03-29T08:16:11;3.08;;;2.70;;
50591;SDS011;36548;50.506;30.834;2023-03-29T08:17:23;3.10;;;2.50;;
50591;SDS011;36548;50.506;30.834;2023-03-29T08:18:38;3.28;;;2.80;;
50591;SDS011;36548;50.506;30.834;2023-03-29T08:19:49;4.15;;;3.20;;
50591;SDS011;36548;50.506;30.834;2023-03-29T08:21:04;4.18;;;3.23;;
50591;SDS011;36548;50.506;30.834;2023-03-29T08:22:14;4.85;;;3.55;;
50591;SDS011;36548;50.506;30.834;2023-03-29T08:23:29;3.72;;;3.17;;
50591;SDS011;36548;50.506;30.834;2023-03-29T08:24:49;4.17;;;3.02;;
50591;SDS011;36548;50.506;30.834;2023-03-29T08:25:58;3.78;;;2.76;;
50591;SDS011;36548;50.506;30.834;2023-03-29T08:27:15;3.53;;;2.57;;
50591;SDS011;36548;50.506;30.834;2023-03-29T08:28:24;3.25;;;2.90;;
50591;SDS011;36548;50.506;30.834;2023-03-29T08:29:40;3.28;;;2.92;;
50591;SDS011;36548;50.506;30.834;2023-03-29T08:30:49;3.28;;;2.98;;
50591;SDS011;36548;50.506;30.834;2023-03-29T08:32:04;4.08;;;3.15;;
50591;SDS011;36548;50.506;30.834;2023-03-29T08:34:37;3.57;;;2.75;;
50591;SDS011;36548;50.506;30.834;2023-03-29T08:36:06;3.97;;;3.32;;
50591;SDS011;36548;50.506;30.834;2023-03-29T08:37:17;4.42;;;2.68;;
50591;SDS011;36548;50.506;30.834;2023-03-29T08:38:28;3.35;;;3.05;;
50591;SDS011;36548;50.506;30.834;2023-03-29T08:39:44;2.93;;;2.68;;
50591;SDS011;36548;50.506;30.834;2023-03-29T08:47:55;3.23;;;2.93;;